Nichiryu Maru — JG5632 — position and weather

sailwx.info

Track history (hours):
 
Tides and Currents Weather Stations Pressure Air Temp Water Temp Dewpoint Dewpoint Depression Visibility Wind Speed Wind Dir Waves Ship Positions

Nichiryu Maru

Last reported at 2018-Apr-25 03:51 UTC. Time now 2018-Apr-25 10:51 UTC.
Position N 33°08' E 132°09'.

Length 158 m; draft 6.5 m.

Type: Cargo ship. MMSI: 43100939.

Date/timePositionNaut miles runAvg speedWind from/ knotsBaromVisibWave heightAir tempDewpointWater temp
2018-Apr-25 03:51N 33°08' E 132°09'720.3
2018-Apr-25 03:30N 33°14' E 132°03'1020.8
2018-Apr-25 03:00N 33°22' E 131°57'1020.8
2018-Apr-25 02:30N 33°31' E 131°50'1121.3
2018-Apr-25 02:00N 33°41' E 131°45'918.9
2018-Apr-25 01:30N 33°46' E 131°36'1020.4
2018-Apr-25 01:00N 33°48' E 131°24'918.6
2018-Apr-25 00:30N 33°49' E 131°13'815.3
2018-Apr-25 00:00N 33°49' E 131°04'4 6.7
2018-Apr-24 23:28N 33°46' E 131°00'0 0.0
2018-Apr-24 22:58N 33°46' E 131°00'0 0.0
2018-Apr-24 22:28N 33°46' E 131°00'0 0.0
2018-Apr-24 21:58N 33°46' E 131°00'0 0.0
2018-Apr-24 21:28N 33°46' E 131°00'0 0.0
2018-Apr-24 20:58N 33°46' E 131°00'0 0.0
2018-Apr-24 20:28N 33°46' E 131°00'0 0.0
2018-Apr-24 19:58N 33°46' E 131°00'0 0.0
2018-Apr-24 19:28N 33°46' E 131°00'0 0.0
2018-Apr-24 18:55N 33°46' E 131°00'0 0.0
2018-Apr-24 18:28N 33°46' E 131°00'1 1.9
2018-Apr-24 18:01N 33°47' E 131°01'712.8
2018-Apr-24 17:30N 33°50' E 131°08'816.2
2018-Apr-24 17:00N 33°48' E 131°17'917.5
2018-Apr-24 16:30N 33°44' E 131°27'917.4
2018-Apr-24 16:00N 33°47' E 131°37'612.4
2018-Apr-24 15:31N 33°46' E 131°44'611.2
2018-Apr-24 15:01N 33°45' E 131°50'713.4
2018-Apr-24 14:30N 33°39' E 131°53'816.8
2018-Apr-24 14:00N 33°30' E 131°53'917.0
2018-Apr-24 13:30N 33°22' E 131°58'713.8
2018-Apr-24 12:59N 33°16' E 132°02'610.3
2018-Apr-24 12:27N 33°12' E 132°06'13613.6
2018-Apr-24 02:27N 33°30' E 134°48'817.5
2018-Apr-24 01:58N 33°33' E 134°57'2318.2
2018-Apr-24 00:41N 33°27' E 135°24'2915.2
2018-Apr-23 22:45N 33°26' E 135°60'718.5
2018-Apr-23 22:22N 33°32' E 136°06'7418.5
2018-Apr-23 18:21N 34°11' E 137°21'1518.7
2018-Apr-23 17:33N 34°17' E 137°38'119.4
2018-Apr-23 17:30N 34°17' E 137°39'1018.7
2018-Apr-23 16:57N 34°20' E 137°51'918.4
2018-Apr-23 16:27N 34°23' E 138°02'818.8
2018-Apr-23 16:01N 34°25' E 138°11'1118.6
2018-Apr-23 15:26N 34°27' E 138°24'918.4
2018-Apr-23 14:58N 34°29' E 138°34'918.4
2018-Apr-23 14:28N 34°30' E 138°45'817.9
2018-Apr-23 14:00N 34°32' E 138°55'917.1
2018-Apr-23 13:30N 34°38' E 139°03'917.4
2018-Apr-23 13:00N 34°45' E 139°09'816.9
2018-Apr-23 12:30N 34°51' E 139°17'816.3
2018-Apr-23 11:59N 34°55' E 139°25'816.9
2018-Apr-23 11:30N 35°00' E 139°33'918.3
2018-Apr-23 11:00N 35°06' E 139°42'816.4
2018-Apr-23 10:30N 35°13' E 139°46'612.1
2018-Apr-23 10:00N 35°19' E 139°43'3 6.7
2018-Apr-23 09:30N 35°19' E 139°39'0 0.0
2018-Apr-23 08:58N 35°19' E 139°39'0 0.0
2018-Apr-23 08:28N 35°19' E 139°39'0 0.0
2018-Apr-23 07:58N 35°19' E 139°39'0 0.0
2018-Apr-23 07:28N 35°19' E 139°39'0 0.0
2018-Apr-23 06:58N 35°19' E 139°39'0 0.0
2018-Apr-23 06:28N 35°19' E 139°39'0 0.0
2018-Apr-23 05:58N 35°19' E 139°39'0 0.0
2018-Apr-23 05:28N 35°19' E 139°39'0 0.0
2018-Apr-23 04:58N 35°19' E 139°39'0 0.0
2018-Apr-23 04:28N 35°19' E 139°39'0 0.0
2018-Apr-23 03:58N 35°19' E 139°39'0 0.0
2018-Apr-23 03:28N 35°19' E 139°39'0 0.0
2018-Apr-23 02:58N 35°19' E 139°39'0 0.0
2018-Apr-23 02:28N 35°19' E 139°39'0 0.0
2018-Apr-23 01:55N 35°19' E 139°39'0 0.0
2018-Apr-23 01:28N 35°19' E 139°39'0 0.0
2018-Apr-23 00:58N 35°19' E 139°39'0 0.0
2018-Apr-23 00:28N 35°19' E 139°39'0 0.0
2018-Apr-22 23:58N 35°19' E 139°39'0 0.0
2018-Apr-22 23:28N 35°19' E 139°39'0 0.1
2018-Apr-22 23:00N 35°19' E 139°39'1 2.8
2018-Apr-22 22:30N 35°20' E 139°41'0 0.0
2018-Apr-22 22:00N 35°20' E 139°41'0 0.1
2018-Apr-22 21:30N 35°20' E 139°41'0 0.0
2018-Apr-22 21:00N 35°20' E 139°41'0 0.1
2018-Apr-22 20:30N 35°20' E 139°41'0 0.1
2018-Apr-22 20:00N 35°20' E 139°41'0 0.0
2018-Apr-22 19:30N 35°20' E 139°41'0 0.2
2018-Apr-22 19:00N 35°20' E 139°41'0 0.0
2018-Apr-22 18:27N 35°20' E 139°41'0 0.0
2018-Apr-22 18:00N 35°20' E 139°41'0 0.1
2018-Apr-22 17:30N 35°20' E 139°41'0 0.0
2018-Apr-22 17:00N 35°20' E 139°41'0 0.0
2018-Apr-22 16:30N 35°20' E 139°41'0 0.0
2018-Apr-22 16:00N 35°20' E 139°41'0 0.0
2018-Apr-22 15:30N 35°20' E 139°41'0 0.0
2018-Apr-22 15:00N 35°20' E 139°41'0 0.0
2018-Apr-22 14:30N 35°20' E 139°41'0 0.0
2018-Apr-22 14:00N 35°20' E 139°41'0 0.1
2018-Apr-22 13:30N 35°20' E 139°41'0 0.1
2018-Apr-22 13:00N 35°20' E 139°41'0 0.0
2018-Apr-22 12:30N 35°20' E 139°41'0 0.5
2018-Apr-22 12:01N 35°20' E 139°41'611.6
2018-Apr-22 11:30N 35°16' E 139°46'714.4
2018-Apr-22 11:00N 35°09' E 139°45'1019.9
2018-Apr-22 10:30N 35°01' E 139°38'1121.1
2018-Apr-22 10:00N 34°54' E 139°28'1122.4
2018-Apr-22 09:30N 34°47' E 139°18'1221.9
2018-Apr-22 08:58N 34°39' E 139°07'1020.9
2018-Apr-22 08:30N 34°33' E 138°58'1121.6
2018-Apr-22 08:00N 34°33' E 138°44'1021.0
2018-Apr-22 07:30N 34°33' E 138°32'1020.7
2018-Apr-22 07:00N 34°32' E 138°19'1021.0
2018-Apr-22 06:30N 34°33' E 138°06'1120.8
2018-Apr-22 05:59N 34°33' E 137°53'2620.4
2018-Apr-22 04:42N 34°33' E 137°21'420.0
2018-Apr-22 04:30N 34°32' E 137°17'1119.0
2018-Apr-22 03:57N 34°32' E 137°04'613.6
2018-Apr-22 03:29N 34°37' E 136°58'918.7
2018-Apr-22 03:00N 34°42' E 137°07'815.7
2018-Apr-22 02:29N 34°44' E 137°17'2 1.0
2018-Apr-22 00:13N 34°44' E 137°20'2 8.7
2018-Apr-22 00:00N 34°44' E 137°17'816.1
2018-Apr-21 23:29N 34°42' E 137°08'817.8
2018-Apr-21 23:00N 34°37' E 136°59'714.2
2018-Apr-21 22:30N 34°31' E 137°02'2719.6
2018-Apr-21 21:08N 34°07' E 136°48'219.0
2018-Apr-21 21:00N 34°05' E 136°46'1019.1
2018-Apr-21 20:28N 33°59' E 136°36'6619.1
2018-Apr-21 17:03N 33°18' E 135°35'119.6
2018-Apr-21 17:00N 33°17' E 135°34'1119.3
2018-Apr-21 16:28N 33°11' E 135°24'2820.7
2018-Apr-21 15:06N 32°54' E 134°57'223.2
2018-Apr-21 15:00N 32°53' E 134°55'1723.3
2018-Apr-21 14:16N 32°43' E 134°38'12520.0
2018-Apr-21 08:01N 33°06' E 132°12'220.8
2018-Apr-21 07:56N 33°07' E 132°10'1020.9
2018-Apr-21 07:29N 33°14' E 132°03'1021.1
2018-Apr-21 07:00N 33°22' E 131°56'1020.3
2018-Apr-21 06:30N 33°32' E 131°51'1020.5
2018-Apr-21 06:00N 33°41' E 131°45'918.2
2018-Apr-21 05:30N 33°46' E 131°37'1020.0
2018-Apr-21 05:00N 33°47' E 131°25'918.6
2018-Apr-21 04:30N 33°49' E 131°14'815.3
2018-Apr-21 04:00N 33°49' E 131°05'5 9.1
2018-Apr-21 03:30N 33°46' E 131°00'0 0.0
2018-Apr-21 02:58N 33°46' E 131°00'0 0.0
2018-Apr-21 02:25N 33°46' E 131°00'0 0.0
2018-Apr-21 01:58N 33°46' E 131°00'0 0.0
2018-Apr-21 01:22N 33°46' E 131°00'0 0.0
2018-Apr-21 00:55N 33°46' E 131°00'0 0.0
2018-Apr-21 00:28N 33°46' E 131°00'0 0.0
2018-Apr-20 23:58N 33°46' E 131°00'0 0.0
2018-Apr-20 23:28N 33°46' E 131°00'0 0.0
2018-Apr-20 22:55N 33°46' E 131°00'0 0.0
2018-Apr-20 22:28N 33°46' E 131°00'0 0.0
2018-Apr-20 21:55N 33°46' E 131°00'0 0.0
2018-Apr-20 21:30N 33°46' E 131°00'2 3.9
2018-Apr-20 21:00N 33°48' E 131°02'714.2
2018-Apr-20 20:30N 33°49' E 131°10'917.3
2018-Apr-20 20:00N 33°48' E 131°20'714.0
2018-Apr-20 19:30N 33°47' E 131°29'611.6
2018-Apr-20 19:00N 33°47' E 131°36'714.8
2018-Apr-20 18:30N 33°46' E 131°45'917.9
2018-Apr-20 18:00N 33°44' E 131°55'917.9
2018-Apr-20 17:30N 33°42' E 132°06'713.2
2018-Apr-20 16:58N 33°43' E 132°14'712.4
2018-Apr-20 16:23N 33°45' E 132°23'717.5
2018-Apr-20 15:59N 33°49' E 132°30'817.3
2018-Apr-20 15:30N 33°54' E 132°37'714.6
2018-Apr-20 15:00N 33°59' E 132°43'7415.1
2018-Apr-20 10:08N 34°27' E 134°06'318.9
2018-Apr-20 09:58N 34°26' E 134°09'918.4
2018-Apr-20 09:29N 34°25' E 134°20'919.2
2018-Apr-20 09:00N 34°28' E 134°31'1019.1
2018-Apr-20 08:30N 34°31' E 134°42'918.2
2018-Apr-20 08:00N 34°35' E 134°52'816.0
2018-Apr-20 07:31N 34°38' E 135°01'815.9
2018-Apr-20 07:00N 34°37' E 135°10'5 9.8
2018-Apr-20 06:30N 34°40' E 135°15'1 1.6
2018-Apr-20 05:59N 34°41' E 135°13'0 0.0
2018-Apr-20 05:29N 34°41' E 135°13'0 0.0
2018-Apr-20 04:59N 34°41' E 135°13'0 0.0
2018-Apr-20 04:29N 34°41' E 135°13'0 0.0
2018-Apr-20 03:59N 34°41' E 135°13'1 2.9
2018-Apr-20 03:30N 34°40' E 135°15'713.9
2018-Apr-20 03:00N 34°33' E 135°15'1019.7
2018-Apr-20 02:30N 34°25' E 135°08'1020.0
2018-Apr-20 02:01N 34°18' E 134°60'1019.1
2018-Apr-20 01:31N 34°08' E 134°58'1019.9
2018-Apr-20 01:00N 33°59' E 135°01'1019.6
2018-Apr-20 00:30N 33°49' E 135°05'1120.3
2018-Apr-19 23:56N 33°40' E 135°14'1220.1
2018-Apr-19 23:20N 33°32' E 135°24'12719.6
2018-Apr-19 16:51N 34°13' E 137°49'1019.9
2018-Apr-19 16:21N 34°16' E 138°00'820.1
2018-Apr-19 15:58N 34°18' E 138°09'1219.5
2018-Apr-19 15:19N 34°22' E 138°23'619.2
2018-Apr-19 15:00N 34°24' E 138°30'918.9
2018-Apr-19 14:30N 34°27' E 138°41'919.0
2018-Apr-19 14:00N 34°31' E 138°52'1019.2
2018-Apr-19 13:29N 34°36' E 139°02'1018.8
2018-Apr-19 12:58N 34°42' E 139°11'919.4
2018-Apr-19 12:30N 34°49' E 139°18'918.3
2018-Apr-19 12:00N 34°56' E 139°26'918.5
2018-Apr-19 11:30N 35°01' E 139°35'918.7
2018-Apr-19 11:00N 35°07' E 139°44'815.3
2018-Apr-19 10:30N 35°14' E 139°47'611.6
2018-Apr-19 10:01N 35°19' E 139°42'2 4.5
2018-Apr-19 09:28N 35°19' E 139°39'0 0.0
2018-Apr-19 08:58N 35°19' E 139°39'0 0.0
2018-Apr-19 08:28N 35°19' E 139°39'0 0.0
2018-Apr-19 07:58N 35°19' E 139°39'0 0.0
2018-Apr-19 07:28N 35°19' E 139°39'0 0.0
2018-Apr-19 06:58N 35°19' E 139°39'0 0.0
2018-Apr-19 06:25N 35°19' E 139°39'0 0.0
2018-Apr-19 05:58N 35°19' E 139°39'0 0.0
2018-Apr-19 05:28N 35°19' E 139°39'0 0.0
2018-Apr-19 04:58N 35°19' E 139°39'0 0.0
2018-Apr-19 04:28N 35°19' E 139°39'0 0.0
2018-Apr-19 03:58N 35°19' E 139°39'0 0.2
2018-Apr-19 03:30N 35°19' E 139°39'510.6
2018-Apr-19 03:00N 35°17' E 139°45'612.2
2018-Apr-19 02:30N 35°11' E 139°47'816.6
2018-Apr-19 02:00N 35°04' E 139°42'918.9
2018-Apr-19 01:30N 34°58' E 139°33'1019.4
2018-Apr-19 01:00N 34°53' E 139°23'1020.2
2018-Apr-19 00:30N 34°46' E 139°14'1019.8
2018-Apr-19 00:00N 34°38' E 139°06'1019.6
2018-Apr-18 23:30N 34°31' E 138°59'1119.1
2018-Apr-18 22:56N 34°25' E 138°47'919.2
2018-Apr-18 22:28N 34°22' E 138°37'919.1
2018-Apr-18 21:58N 34°18' E 138°27'1518.5
2018-Apr-18 21:11N 34°12' E 138°11'30918.0
2018-Apr-18 04:00N 33°10' E 132°06'1122.7
2018-Apr-18 03:30N 33°20' E 131°59'1121.2
2018-Apr-18 03:00N 33°29' E 131°53'1021.1
2018-Apr-18 02:30N 33°38' E 131°47'918.7
2018-Apr-18 02:00N 33°46' E 131°40'1020.1
2018-Apr-18 01:30N 33°47' E 131°28'1019.4
2018-Apr-18 01:00N 33°49' E 131°17'815.9
2018-Apr-18 00:30N 33°49' E 131°07'612.2
2018-Apr-18 00:00N 33°46' E 131°00'0 0.1
2018-Apr-17 23:27N 33°46' E 131°00'0 0.0
2018-Apr-17 23:00N 33°46' E 131°00'0 0.0
2018-Apr-17 22:30N 33°46' E 131°00'0 0.0
2018-Apr-17 22:00N 33°46' E 131°00'0 0.0
2018-Apr-17 21:30N 33°46' E 131°00'0 0.0
2018-Apr-17 20:59N 33°46' E 131°00'0 0.0
2018-Apr-17 20:30N 33°46' E 131°00'0 0.0
2018-Apr-17 20:00N 33°46' E 131°00'0 0.0
2018-Apr-17 19:30N 33°46' E 131°00'0 0.0
2018-Apr-17 19:00N 33°46' E 131°00'0 0.0
2018-Apr-17 18:30N 33°46' E 131°00'1 1.6
2018-Apr-17 18:00N 33°47' E 131°01'612.4
2018-Apr-17 17:30N 33°50' E 131°07'714.6
2018-Apr-17 17:01N 33°49' E 131°16'917.5
2018-Apr-17 16:30N 33°47' E 131°26'816.1
2018-Apr-17 16:00N 33°46' E 131°36'815.9
2018-Apr-17 15:30N 33°43' E 131°45'917.3
2018-Apr-17 15:01N 33°35' E 131°50'1117.7
2018-Apr-17 14:24N 33°26' E 131°56'717.3
2018-Apr-17 14:00N 33°19' E 131°59'815.3
2018-Apr-17 13:29N 33°13' E 132°05'13012.1
2018-Apr-17 02:43N 33°24' E 134°40'418.5
2018-Apr-17 02:30N 33°27' E 134°44'815.3
2018-Apr-17 02:00N 33°29' E 134°53'813.8
2018-Apr-17 01:28N 33°28' E 135°02'1316.3
2018-Apr-17 00:41N 33°26' E 135°16'718.1
2018-Apr-17 00:18N 33°25' E 135°25'13417.5
2018-Apr-16 16:39N 34°18' E 137°53'618.4
2018-Apr-16 16:20N 34°20' E 137°60'618.3
2018-Apr-16 16:00N 34°21' E 138°07'1018.2
2018-Apr-16 15:26N 34°24' E 138°19'818.4
2018-Apr-16 15:00N 34°26' E 138°28'1118.2
2018-Apr-16 14:26N 34°29' E 138°41'817.9
2018-Apr-16 13:59N 34°31' E 138°50'816.9
2018-Apr-16 13:30N 34°33' E 138°59'1017.4
2018-Apr-16 12:56N 34°41' E 139°07'817.5
2018-Apr-16 12:30N 34°46' E 139°14'917.5
2018-Apr-16 11:59N 34°52' E 139°22'817.0
2018-Apr-16 11:30N 34°57' E 139°29'917.5
2018-Apr-16 11:00N 35°03' E 139°38'917.5
2018-Apr-16 10:30N 35°09' E 139°45'713.1
2018-Apr-16 10:01N 35°16' E 139°46'611.7
2018-Apr-16 09:30N 35°19' E 139°39'0 0.6
2018-Apr-16 08:57N 35°19' E 139°39'0 0.0
2018-Apr-16 08:30N 35°19' E 139°39'0 0.0
2018-Apr-16 07:51N 35°19' E 139°39'0 0.0
2018-Apr-16 07:30N 35°19' E 139°39'0 0.0
2018-Apr-16 06:57N 35°19' E 139°39'0 0.0
2018-Apr-16 06:24N 35°19' E 139°39'0 0.0
2018-Apr-16 06:00N 35°19' E 139°39'0 0.0
2018-Apr-16 05:27N 35°19' E 139°39'0 0.0
2018-Apr-16 05:00N 35°19' E 139°39'0 0.0
2018-Apr-16 04:30N 35°19' E 139°39'0 0.0
2018-Apr-16 04:00N 35°19' E 139°39'0 0.0
2018-Apr-16 03:30N 35°19' E 139°39'0 0.0
2018-Apr-16 03:00N 35°19' E 139°39'0 0.0
2018-Apr-16 02:30N 35°19' E 139°39'0 0.0
2018-Apr-16 02:00N 35°19' E 139°39'0 0.0
2018-Apr-16 01:27N 35°19' E 139°39'0 0.0
2018-Apr-16 01:00N 35°19' E 139°39'0 0.0
2018-Apr-16 00:30N 35°19' E 139°39'0 0.0
2018-Apr-16 00:00N 35°19' E 139°39'0 0.0
2018-Apr-15 23:30N 35°19' E 139°39'0 0.4
2018-Apr-15 23:00N 35°19' E 139°39'2 3.6
2018-Apr-15 22:28N 35°20' E 139°41'0 0.1
2018-Apr-15 21:58N 35°20' E 139°41'0 0.1
2018-Apr-15 21:28N 35°20' E 139°41'0 0.1
2018-Apr-15 20:58N 35°20' E 139°41'0 0.0
2018-Apr-15 20:28N 35°20' E 139°41'0 0.1
2018-Apr-15 19:58N 35°20' E 139°41'0 0.1
2018-Apr-15 19:28N 35°20' E 139°41'0 0.1
2018-Apr-15 18:58N 35°20' E 139°41'0 0.0
2018-Apr-15 18:28N 35°20' E 139°41'0 0.1
2018-Apr-15 17:58N 35°20' E 139°41'0 0.1
2018-Apr-15 17:28N 35°20' E 139°41'0 0.1
2018-Apr-15 16:55N 35°20' E 139°41'0 0.1
2018-Apr-15 16:28N 35°20' E 139°41'0 0.2
2018-Apr-15 15:58N 35°20' E 139°41'0 0.2
2018-Apr-15 15:28N 35°20' E 139°41'0 0.2
2018-Apr-15 14:58N 35°20' E 139°41'0 0.2
2018-Apr-15 14:28N 35°20' E 139°41'0 0.2
2018-Apr-15 13:58N 35°20' E 139°41'0 0.2
2018-Apr-15 13:30N 35°20' E 139°41'3 6.9
2018-Apr-15 13:00N 35°18' E 139°45'612.1
2018-Apr-15 12:30N 35°12' E 139°47'917.5
2018-Apr-15 12:00N 35°04' E 139°43'918.5
2018-Apr-15 11:31N 34°57' E 139°35'1220.4
2018-Apr-15 10:56N 34°51' E 139°23'920.7
2018-Apr-15 10:31N 34°45' E 139°15'1020.2
2018-Apr-15 10:00N 34°38' E 139°06'1020.0
2018-Apr-15 09:30N 34°32' E 138°56'1120.2
2018-Apr-15 08:58N 34°30' E 138°43'920.1
2018-Apr-15 08:30N 34°30' E 138°32'1119.8
2018-Apr-15 07:58N 34°31' E 138°19'919.9
2018-Apr-15 07:30N 34°32' E 138°08'1120.2
2018-Apr-15 06:57N 34°32' E 137°55'1319.8
2018-Apr-15 06:17N 34°32' E 137°39'1219.8
2018-Apr-15 05:40N 34°32' E 137°24'519.9
2018-Apr-15 05:24N 34°32' E 137°17'1317.1
2018-Apr-15 04:37N 34°33' E 137°01'213.1
2018-Apr-15 04:29N 34°34' E 136°60'613.1
2018-Apr-15 04:00N 34°40' E 137°02'  
Track history (hours):
 
Tides and Currents Weather Stations Pressure Air Temp Water Temp Dewpoint Dewpoint Depression Visibility Wind Speed Wind Dir Waves Ship Positions

Nichiryu Maru

Last reported at 2018-Apr-25 03:51 UTC. Time now 2018-Apr-25 10:51 UTC.
Position N 33°08' E 132°09'.

Length 158 m; draft 6.5 m.

Type: Cargo ship. MMSI: 43100939.

Date/timePositionNaut miles runAvg speedWind from/ knotsBaromVisibWave heightAir tempDewpointWater temp
2018-Apr-25 03:51N 33°08' E 132°09'720.3
2018-Apr-25 03:30N 33°14' E 132°03'1020.8
2018-Apr-25 03:00N 33°22' E 131°57'1020.8
2018-Apr-25 02:30N 33°31' E 131°50'1121.3
2018-Apr-25 02:00N 33°41' E 131°45'918.9
2018-Apr-25 01:30N 33°46' E 131°36'1020.4
2018-Apr-25 01:00N 33°48' E 131°24'918.6
2018-Apr-25 00:30N 33°49' E 131°13'815.3
2018-Apr-25 00:00N 33°49' E 131°04'4 6.7
2018-Apr-24 23:28N 33°46' E 131°00'0 0.0
2018-Apr-24 22:58N 33°46' E 131°00'0 0.0
2018-Apr-24 22:28N 33°46' E 131°00'0 0.0
2018-Apr-24 21:58N 33°46' E 131°00'0 0.0
2018-Apr-24 21:28N 33°46' E 131°00'0 0.0
2018-Apr-24 20:58N 33°46' E 131°00'0 0.0
2018-Apr-24 20:28N 33°46' E 131°00'0 0.0
2018-Apr-24 19:58N 33°46' E 131°00'0 0.0
2018-Apr-24 19:28N 33°46' E 131°00'0 0.0
2018-Apr-24 18:55N 33°46' E 131°00'0 0.0
2018-Apr-24 18:28N 33°46' E 131°00'1 1.9
2018-Apr-24 18:01N 33°47' E 131°01'712.8
2018-Apr-24 17:30N 33°50' E 131°08'816.2
2018-Apr-24 17:00N 33°48' E 131°17'917.5
2018-Apr-24 16:30N 33°44' E 131°27'917.4
2018-Apr-24 16:00N 33°47' E 131°37'612.4
2018-Apr-24 15:31N 33°46' E 131°44'611.2
2018-Apr-24 15:01N 33°45' E 131°50'713.4
2018-Apr-24 14:30N 33°39' E 131°53'816.8
2018-Apr-24 14:00N 33°30' E 131°53'917.0
2018-Apr-24 13:30N 33°22' E 131°58'713.8
2018-Apr-24 12:59N 33°16' E 132°02'610.3
2018-Apr-24 12:27N 33°12' E 132°06'13613.6
2018-Apr-24 02:27N 33°30' E 134°48'817.5
2018-Apr-24 01:58N 33°33' E 134°57'2318.2
2018-Apr-24 00:41N 33°27' E 135°24'2915.2
2018-Apr-23 22:45N 33°26' E 135°60'718.5
2018-Apr-23 22:22N 33°32' E 136°06'7418.5
2018-Apr-23 18:21N 34°11' E 137°21'1518.7
2018-Apr-23 17:33N 34°17' E 137°38'119.4
2018-Apr-23 17:30N 34°17' E 137°39'1018.7
2018-Apr-23 16:57N 34°20' E 137°51'918.4
2018-Apr-23 16:27N 34°23' E 138°02'818.8
2018-Apr-23 16:01N 34°25' E 138°11'1118.6
2018-Apr-23 15:26N 34°27' E 138°24'918.4
2018-Apr-23 14:58N 34°29' E 138°34'918.4
2018-Apr-23 14:28N 34°30' E 138°45'817.9
2018-Apr-23 14:00N 34°32' E 138°55'917.1
2018-Apr-23 13:30N 34°38' E 139°03'917.4
2018-Apr-23 13:00N 34°45' E 139°09'816.9
2018-Apr-23 12:30N 34°51' E 139°17'816.3
2018-Apr-23 11:59N 34°55' E 139°25'816.9
2018-Apr-23 11:30N 35°00' E 139°33'918.3
2018-Apr-23 11:00N 35°06' E 139°42'816.4
2018-Apr-23 10:30N 35°13' E 139°46'612.1
2018-Apr-23 10:00N 35°19' E 139°43'3 6.7
2018-Apr-23 09:30N 35°19' E 139°39'0 0.0
2018-Apr-23 08:58N 35°19' E 139°39'0 0.0
2018-Apr-23 08:28N 35°19' E 139°39'0 0.0
2018-Apr-23 07:58N 35°19' E 139°39'0 0.0
2018-Apr-23 07:28N 35°19' E 139°39'0 0.0
2018-Apr-23 06:58N 35°19' E 139°39'0 0.0
2018-Apr-23 06:28N 35°19' E 139°39'0 0.0
2018-Apr-23 05:58N 35°19' E 139°39'0 0.0
2018-Apr-23 05:28N 35°19' E 139°39'0 0.0
2018-Apr-23 04:58N 35°19' E 139°39'0 0.0
2018-Apr-23 04:28N 35°19' E 139°39'0 0.0
2018-Apr-23 03:58N 35°19' E 139°39'0 0.0
2018-Apr-23 03:28N 35°19' E 139°39'0 0.0
2018-Apr-23 02:58N 35°19' E 139°39'0 0.0
2018-Apr-23 02:28N 35°19' E 139°39'0 0.0
2018-Apr-23 01:55N 35°19' E 139°39'0 0.0
2018-Apr-23 01:28N 35°19' E 139°39'0 0.0
2018-Apr-23 00:58N 35°19' E 139°39'0 0.0
2018-Apr-23 00:28N 35°19' E 139°39'0 0.0
2018-Apr-22 23:58N 35°19' E 139°39'0 0.0
2018-Apr-22 23:28N 35°19' E 139°39'0 0.1
2018-Apr-22 23:00N 35°19' E 139°39'1 2.8
2018-Apr-22 22:30N 35°20' E 139°41'0 0.0
2018-Apr-22 22:00N 35°20' E 139°41'0 0.1
2018-Apr-22 21:30N 35°20' E 139°41'0 0.0
2018-Apr-22 21:00N 35°20' E 139°41'0 0.1
2018-Apr-22 20:30N 35°20' E 139°41'0 0.1
2018-Apr-22 20:00N 35°20' E 139°41'0 0.0
2018-Apr-22 19:30N 35°20' E 139°41'0 0.2
2018-Apr-22 19:00N 35°20' E 139°41'0 0.0
2018-Apr-22 18:27N 35°20' E 139°41'0 0.0
2018-Apr-22 18:00N 35°20' E 139°41'0 0.1
2018-Apr-22 17:30N 35°20' E 139°41'0 0.0
2018-Apr-22 17:00N 35°20' E 139°41'0 0.0
2018-Apr-22 16:30N 35°20' E 139°41'0 0.0
2018-Apr-22 16:00N 35°20' E 139°41'0 0.0
2018-Apr-22 15:30N 35°20' E 139°41'0 0.0
2018-Apr-22 15:00N 35°20' E 139°41'0 0.0
2018-Apr-22 14:30N 35°20' E 139°41'0 0.0
2018-Apr-22 14:00N 35°20' E 139°41'0 0.1
2018-Apr-22 13:30N 35°20' E 139°41'0 0.1
2018-Apr-22 13:00N 35°20' E 139°41'0 0.0
2018-Apr-22 12:30N 35°20' E 139°41'0 0.5
2018-Apr-22 12:01N 35°20' E 139°41'611.6
2018-Apr-22 11:30N 35°16' E 139°46'714.4
2018-Apr-22 11:00N 35°09' E 139°45'1019.9
2018-Apr-22 10:30N 35°01' E 139°38'1121.1
2018-Apr-22 10:00N 34°54' E 139°28'1122.4
2018-Apr-22 09:30N 34°47' E 139°18'1221.9
2018-Apr-22 08:58N 34°39' E 139°07'1020.9
2018-Apr-22 08:30N 34°33' E 138°58'1121.6
2018-Apr-22 08:00N 34°33' E 138°44'1021.0
2018-Apr-22 07:30N 34°33' E 138°32'1020.7
2018-Apr-22 07:00N 34°32' E 138°19'1021.0
2018-Apr-22 06:30N 34°33' E 138°06'1120.8
2018-Apr-22 05:59N 34°33' E 137°53'2620.4
2018-Apr-22 04:42N 34°33' E 137°21'420.0
2018-Apr-22 04:30N 34°32' E 137°17'1119.0
2018-Apr-22 03:57N 34°32' E 137°04'613.6
2018-Apr-22 03:29N 34°37' E 136°58'918.7
2018-Apr-22 03:00N 34°42' E 137°07'815.7
2018-Apr-22 02:29N 34°44' E 137°17'2 1.0
2018-Apr-22 00:13N 34°44' E 137°20'2 8.7
2018-Apr-22 00:00N 34°44' E 137°17'816.1
2018-Apr-21 23:29N 34°42' E 137°08'817.8
2018-Apr-21 23:00N 34°37' E 136°59'714.2
2018-Apr-21 22:30N 34°31' E 137°02'2719.6
2018-Apr-21 21:08N 34°07' E 136°48'219.0
2018-Apr-21 21:00N 34°05' E 136°46'1019.1
2018-Apr-21 20:28N 33°59' E 136°36'6619.1
2018-Apr-21 17:03N 33°18' E 135°35'119.6
2018-Apr-21 17:00N 33°17' E 135°34'1119.3
2018-Apr-21 16:28N 33°11' E 135°24'2820.7
2018-Apr-21 15:06N 32°54' E 134°57'223.2
2018-Apr-21 15:00N 32°53' E 134°55'1723.3
2018-Apr-21 14:16N 32°43' E 134°38'12520.0
2018-Apr-21 08:01N 33°06' E 132°12'220.8
2018-Apr-21 07:56N 33°07' E 132°10'1020.9
2018-Apr-21 07:29N 33°14' E 132°03'1021.1
2018-Apr-21 07:00N 33°22' E 131°56'1020.3
2018-Apr-21 06:30N 33°32' E 131°51'1020.5
2018-Apr-21 06:00N 33°41' E 131°45'918.2
2018-Apr-21 05:30N 33°46' E 131°37'1020.0
2018-Apr-21 05:00N 33°47' E 131°25'918.6
2018-Apr-21 04:30N 33°49' E 131°14'815.3
2018-Apr-21 04:00N 33°49' E 131°05'5 9.1
2018-Apr-21 03:30N 33°46' E 131°00'0 0.0
2018-Apr-21 02:58N 33°46' E 131°00'0 0.0
2018-Apr-21 02:25N 33°46' E 131°00'0 0.0
2018-Apr-21 01:58N 33°46' E 131°00'0 0.0
2018-Apr-21 01:22N 33°46' E 131°00'0 0.0
2018-Apr-21 00:55N 33°46' E 131°00'0 0.0
2018-Apr-21 00:28N 33°46' E 131°00'0 0.0
2018-Apr-20 23:58N 33°46' E 131°00'0 0.0
2018-Apr-20 23:28N 33°46' E 131°00'0 0.0
2018-Apr-20 22:55N 33°46' E 131°00'0 0.0
2018-Apr-20 22:28N 33°46' E 131°00'0 0.0
2018-Apr-20 21:55N 33°46' E 131°00'0 0.0
2018-Apr-20 21:30N 33°46' E 131°00'2 3.9
2018-Apr-20 21:00N 33°48' E 131°02'714.2
2018-Apr-20 20:30N 33°49' E 131°10'917.3
2018-Apr-20 20:00N 33°48' E 131°20'714.0
2018-Apr-20 19:30N 33°47' E 131°29'611.6
2018-Apr-20 19:00N 33°47' E 131°36'714.8
2018-Apr-20 18:30N 33°46' E 131°45'917.9
2018-Apr-20 18:00N 33°44' E 131°55'917.9
2018-Apr-20 17:30N 33°42' E 132°06'713.2
2018-Apr-20 16:58N 33°43' E 132°14'712.4
2018-Apr-20 16:23N 33°45' E 132°23'717.5
2018-Apr-20 15:59N 33°49' E 132°30'817.3
2018-Apr-20 15:30N 33°54' E 132°37'714.6
2018-Apr-20 15:00N 33°59' E 132°43'7415.1
2018-Apr-20 10:08N 34°27' E 134°06'318.9
2018-Apr-20 09:58N 34°26' E 134°09'918.4
2018-Apr-20 09:29N 34°25' E 134°20'919.2
2018-Apr-20 09:00N 34°28' E 134°31'1019.1
2018-Apr-20 08:30N 34°31' E 134°42'918.2
2018-Apr-20 08:00N 34°35' E 134°52'816.0
2018-Apr-20 07:31N 34°38' E 135°01'815.9
2018-Apr-20 07:00N 34°37' E 135°10'5 9.8
2018-Apr-20 06:30N 34°40' E 135°15'1 1.6
2018-Apr-20 05:59N 34°41' E 135°13'0 0.0
2018-Apr-20 05:29N 34°41' E 135°13'0 0.0
2018-Apr-20 04:59N 34°41' E 135°13'0 0.0
2018-Apr-20 04:29N 34°41' E 135°13'0 0.0
2018-Apr-20 03:59N 34°41' E 135°13'1 2.9
2018-Apr-20 03:30N 34°40' E 135°15'713.9
2018-Apr-20 03:00N 34°33' E 135°15'1019.7
2018-Apr-20 02:30N 34°25' E 135°08'1020.0
2018-Apr-20 02:01N 34°18' E 134°60'1019.1
2018-Apr-20 01:31N 34°08' E 134°58'1019.9
2018-Apr-20 01:00N 33°59' E 135°01'1019.6
2018-Apr-20 00:30N 33°49' E 135°05'1120.3
2018-Apr-19 23:56N 33°40' E 135°14'1220.1
2018-Apr-19 23:20N 33°32' E 135°24'12719.6
2018-Apr-19 16:51N 34°13' E 137°49'1019.9
2018-Apr-19 16:21N 34°16' E 138°00'820.1
2018-Apr-19 15:58N 34°18' E 138°09'1219.5
2018-Apr-19 15:19N 34°22' E 138°23'619.2
2018-Apr-19 15:00N 34°24' E 138°30'918.9
2018-Apr-19 14:30N 34°27' E 138°41'919.0
2018-Apr-19 14:00N 34°31' E 138°52'1019.2
2018-Apr-19 13:29N 34°36' E 139°02'1018.8
2018-Apr-19 12:58N 34°42' E 139°11'919.4
2018-Apr-19 12:30N 34°49' E 139°18'918.3
2018-Apr-19 12:00N 34°56' E 139°26'918.5
2018-Apr-19 11:30N 35°01' E 139°35'918.7
2018-Apr-19 11:00N 35°07' E 139°44'815.3
2018-Apr-19 10:30N 35°14' E 139°47'611.6
2018-Apr-19 10:01N 35°19' E 139°42'2 4.5
2018-Apr-19 09:28N 35°19' E 139°39'0 0.0
2018-Apr-19 08:58N 35°19' E 139°39'0 0.0
2018-Apr-19 08:28N 35°19' E 139°39'0 0.0
2018-Apr-19 07:58N 35°19' E 139°39'0 0.0
2018-Apr-19 07:28N 35°19' E 139°39'0 0.0
2018-Apr-19 06:58N 35°19' E 139°39'0 0.0
2018-Apr-19 06:25N 35°19' E 139°39'0 0.0
2018-Apr-19 05:58N 35°19' E 139°39'0 0.0
2018-Apr-19 05:28N 35°19' E 139°39'0 0.0
2018-Apr-19 04:58N 35°19' E 139°39'0 0.0
2018-Apr-19 04:28N 35°19' E 139°39'0 0.0
2018-Apr-19 03:58N 35°19' E 139°39'0 0.2
2018-Apr-19 03:30N 35°19' E 139°39'510.6
2018-Apr-19 03:00N 35°17' E 139°45'612.2
2018-Apr-19 02:30N 35°11' E 139°47'816.6
2018-Apr-19 02:00N 35°04' E 139°42'918.9
2018-Apr-19 01:30N 34°58' E 139°33'1019.4
2018-Apr-19 01:00N 34°53' E 139°23'1020.2
2018-Apr-19 00:30N 34°46' E 139°14'1019.8
2018-Apr-19 00:00N 34°38' E 139°06'1019.6
2018-Apr-18 23:30N 34°31' E 138°59'1119.1
2018-Apr-18 22:56N 34°25' E 138°47'919.2
2018-Apr-18 22:28N 34°22' E 138°37'919.1
2018-Apr-18 21:58N 34°18' E 138°27'1518.5
2018-Apr-18 21:11N 34°12' E 138°11'30918.0
2018-Apr-18 04:00N 33°10' E 132°06'1122.7
2018-Apr-18 03:30N 33°20' E 131°59'1121.2
2018-Apr-18 03:00N 33°29' E 131°53'1021.1
2018-Apr-18 02:30N 33°38' E 131°47'918.7
2018-Apr-18 02:00N 33°46' E 131°40'1020.1
2018-Apr-18 01:30N 33°47' E 131°28'1019.4
2018-Apr-18 01:00N 33°49' E 131°17'815.9
2018-Apr-18 00:30N 33°49' E 131°07'612.2
2018-Apr-18 00:00N 33°46' E 131°00'0 0.1
2018-Apr-17 23:27N 33°46' E 131°00'0 0.0
2018-Apr-17 23:00N 33°46' E 131°00'0 0.0
2018-Apr-17 22:30N 33°46' E 131°00'0 0.0
2018-Apr-17 22:00N 33°46' E 131°00'0 0.0
2018-Apr-17 21:30N 33°46' E 131°00'0 0.0
2018-Apr-17 20:59N 33°46' E 131°00'0 0.0
2018-Apr-17 20:30N 33°46' E 131°00'0 0.0
2018-Apr-17 20:00N 33°46' E 131°00'0 0.0
2018-Apr-17 19:30N 33°46' E 131°00'0 0.0
2018-Apr-17 19:00N 33°46' E 131°00'0 0.0
2018-Apr-17 18:30N 33°46' E 131°00'1 1.6
2018-Apr-17 18:00N 33°47' E 131°01'612.4
2018-Apr-17 17:30N 33°50' E 131°07'714.6
2018-Apr-17 17:01N 33°49' E 131°16'917.5
2018-Apr-17 16:30N 33°47' E 131°26'816.1
2018-Apr-17 16:00N 33°46' E 131°36'815.9
2018-Apr-17 15:30N 33°43' E 131°45'917.3
2018-Apr-17 15:01N 33°35' E 131°50'1117.7
2018-Apr-17 14:24N 33°26' E 131°56'717.3
2018-Apr-17 14:00N 33°19' E 131°59'815.3
2018-Apr-17 13:29N 33°13' E 132°05'13012.1
2018-Apr-17 02:43N 33°24' E 134°40'418.5
2018-Apr-17 02:30N 33°27' E 134°44'815.3
2018-Apr-17 02:00N 33°29' E 134°53'813.8
2018-Apr-17 01:28N 33°28' E 135°02'1316.3
2018-Apr-17 00:41N 33°26' E 135°16'718.1
2018-Apr-17 00:18N 33°25' E 135°25'13417.5
2018-Apr-16 16:39N 34°18' E 137°53'618.4
2018-Apr-16 16:20N 34°20' E 137°60'618.3
2018-Apr-16 16:00N 34°21' E 138°07'1018.2
2018-Apr-16 15:26N 34°24' E 138°19'818.4
2018-Apr-16 15:00N 34°26' E 138°28'1118.2
2018-Apr-16 14:26N 34°29' E 138°41'817.9
2018-Apr-16 13:59N 34°31' E 138°50'816.9
2018-Apr-16 13:30N 34°33' E 138°59'1017.4
2018-Apr-16 12:56N 34°41' E 139°07'817.5
2018-Apr-16 12:30N 34°46' E 139°14'917.5
2018-Apr-16 11:59N 34°52' E 139°22'817.0
2018-Apr-16 11:30N 34°57' E 139°29'917.5
2018-Apr-16 11:00N 35°03' E 139°38'917.5
2018-Apr-16 10:30N 35°09' E 139°45'713.1
2018-Apr-16 10:01N 35°16' E 139°46'611.7
2018-Apr-16 09:30N 35°19' E 139°39'0 0.6
2018-Apr-16 08:57N 35°19' E 139°39'0 0.0
2018-Apr-16 08:30N 35°19' E 139°39'0 0.0
2018-Apr-16 07:51N 35°19' E 139°39'0 0.0
2018-Apr-16 07:30N 35°19' E 139°39'0 0.0
2018-Apr-16 06:57N 35°19' E 139°39'0 0.0
2018-Apr-16 06:24N 35°19' E 139°39'0 0.0
2018-Apr-16 06:00N 35°19' E 139°39'0 0.0
2018-Apr-16 05:27N 35°19' E 139°39'0 0.0
2018-Apr-16 05:00N 35°19' E 139°39'0 0.0
2018-Apr-16 04:30N 35°19' E 139°39'0 0.0
2018-Apr-16 04:00N 35°19' E 139°39'0 0.0
2018-Apr-16 03:30N 35°19' E 139°39'0 0.0
2018-Apr-16 03:00N 35°19' E 139°39'0 0.0
2018-Apr-16 02:30N 35°19' E 139°39'0 0.0
2018-Apr-16 02:00N 35°19' E 139°39'0 0.0
2018-Apr-16 01:27N 35°19' E 139°39'0 0.0
2018-Apr-16 01:00N 35°19' E 139°39'0 0.0
2018-Apr-16 00:30N 35°19' E 139°39'0 0.0
2018-Apr-16 00:00N 35°19' E 139°39'0 0.0
2018-Apr-15 23:30N 35°19' E 139°39'0 0.4
2018-Apr-15 23:00N 35°19' E 139°39'2 3.6
2018-Apr-15 22:28N 35°20' E 139°41'0 0.1
2018-Apr-15 21:58N 35°20' E 139°41'0 0.1
2018-Apr-15 21:28N 35°20' E 139°41'0 0.1
2018-Apr-15 20:58N 35°20' E 139°41'0 0.0
2018-Apr-15 20:28N 35°20' E 139°41'0 0.1
2018-Apr-15 19:58N 35°20' E 139°41'0 0.1
2018-Apr-15 19:28N 35°20' E 139°41'0 0.1
2018-Apr-15 18:58N 35°20' E 139°41'0 0.0
2018-Apr-15 18:28N 35°20' E 139°41'0 0.1
2018-Apr-15 17:58N 35°20' E 139°41'0 0.1
2018-Apr-15 17:28N 35°20' E 139°41'0 0.1
2018-Apr-15 16:55N 35°20' E 139°41'0 0.1
2018-Apr-15 16:28N 35°20' E 139°41'0 0.2
2018-Apr-15 15:58N 35°20' E 139°41'0 0.2
2018-Apr-15 15:28N 35°20' E 139°41'0 0.2
2018-Apr-15 14:58N 35°20' E 139°41'0 0.2
2018-Apr-15 14:28N 35°20' E 139°41'0 0.2
2018-Apr-15 13:58N 35°20' E 139°41'0 0.2
2018-Apr-15 13:30N 35°20' E 139°41'3 6.9
2018-Apr-15 13:00N 35°18' E 139°45'612.1
2018-Apr-15 12:30N 35°12' E 139°47'917.5
2018-Apr-15 12:00N 35°04' E 139°43'918.5
2018-Apr-15 11:31N 34°57' E 139°35'1220.4
2018-Apr-15 10:56N 34°51' E 139°23'920.7
2018-Apr-15 10:31N 34°45' E 139°15'1020.2
2018-Apr-15 10:00N 34°38' E 139°06'1020.0
2018-Apr-15 09:30N 34°32' E 138°56'1120.2
2018-Apr-15 08:58N 34°30' E 138°43'920.1
2018-Apr-15 08:30N 34°30' E 138°32'1119.8
2018-Apr-15 07:58N 34°31' E 138°19'919.9
2018-Apr-15 07:30N 34°32' E 138°08'1120.2
2018-Apr-15 06:57N 34°32' E 137°55'1319.8
2018-Apr-15 06:17N 34°32' E 137°39'1219.8
2018-Apr-15 05:40N 34°32' E 137°24'519.9
2018-Apr-15 05:24N 34°32' E 137°17'1317.1
2018-Apr-15 04:37N 34°33' E 137°01'213.1
2018-Apr-15 04:29N 34°34' E 136°60'613.1
2018-Apr-15 04:00N 34°40' E 137°02'  

Dump ship's entire track history